createdAt,value
2022-08-02T00:00:59.062Z,0.00
2022-08-02T00:01:59.209Z,0.00
2022-08-02T00:02:59.076Z,0.00
2022-08-02T00:03:59.020Z,0.00
2022-08-02T00:04:59.018Z,0.00
2022-08-02T00:05:59.002Z,0.00
2022-08-02T00:06:59.017Z,0.00
2022-08-02T00:07:59.094Z,0.00
2022-08-02T00:08:58.968Z,0.00
2022-08-02T00:09:58.960Z,0.00
2022-08-02T00:10:58.951Z,0.00
2022-08-02T00:11:58.948Z,0.00
2022-08-02T00:12:58.954Z,0.00
2022-08-02T00:13:59.031Z,0.00
2022-08-02T00:14:58.918Z,0.00
2022-08-02T00:15:58.910Z,0.00
2022-08-02T00:16:58.992Z,0.00
2022-08-02T00:17:58.867Z,0.00
2022-08-02T00:18:58.907Z,0.00
2022-08-02T00:19:58.848Z,0.00
2022-08-02T00:20:58.866Z,0.00
2022-08-02T00:21:58.814Z,0.00
2022-08-02T00:22:58.833Z,0.00
2022-08-02T00:24:27.947Z,0.00
2022-08-02T00:24:59.803Z,0.00
2022-08-02T00:25:58.781Z,0.00
2022-08-02T00:26:58.798Z,0.00
2022-08-02T00:27:58.753Z,0.00
2022-08-02T00:28:58.779Z,0.00
2022-08-02T00:29:58.736Z,0.00
2022-08-02T00:30:58.727Z,0.00
2022-08-02T00:31:58.717Z,0.00
2022-08-02T00:32:58.712Z,0.00
2022-08-02T00:34:04.854Z,0.00
2022-08-02T00:34:59.681Z,0.00
2022-08-02T00:35:58.691Z,0.00
2022-08-02T00:36:58.663Z,0.00
2022-08-02T00:37:58.679Z,0.00
2022-08-02T00:38:58.669Z,0.00
2022-08-02T00:39:58.635Z,0.00
2022-08-02T00:40:58.610Z,0.00
2022-08-02T00:41:58.603Z,0.00
2022-08-02T00:42:58.591Z,0.00
2022-08-02T00:43:58.615Z,0.00
2022-08-02T00:44:58.571Z,0.00
2022-08-02T00:46:03.384Z,0.00
2022-08-02T00:46:59.555Z,0.00
2022-08-02T00:47:58.528Z,0.00
2022-08-02T00:48:58.575Z,0.00
2022-08-02T00:49:58.515Z,0.00
2022-08-02T00:50:58.496Z,0.00
2022-08-02T00:51:58.507Z,0.00
2022-08-02T00:52:58.492Z,0.00
2022-08-02T00:53:58.485Z,0.00
2022-08-02T00:54:58.451Z,0.00
2022-08-02T00:55:58.460Z,0.00
2022-08-02T00:56:58.462Z,0.00
2022-08-02T00:57:58.428Z,0.00
2022-08-02T00:58:58.438Z,0.00
2022-08-02T00:59:58.399Z,0.00
2022-08-02T01:00:58.494Z,0.00
2022-08-02T01:01:58.561Z,0.00
2022-08-02T01:02:58.372Z,0.00
2022-08-02T01:03:58.382Z,0.00
2022-08-02T01:04:58.347Z,0.00
2022-08-02T01:06:11.015Z,0.00
2022-08-02T01:06:59.322Z,0.00
2022-08-02T01:07:58.309Z,0.00
2022-08-02T01:08:58.336Z,0.00
2022-08-02T01:09:58.289Z,0.00
2022-08-02T01:10:58.263Z,0.00
2022-08-02T01:12:07.354Z,0.00
2022-08-02T01:12:59.232Z,0.00
2022-08-02T01:13:58.268Z,0.00
2022-08-02T01:14:58.226Z,0.00
2022-08-02T01:15:58.221Z,0.00
2022-08-02T01:16:58.224Z,0.00
2022-08-02T01:17:58.191Z,0.00
2022-08-02T01:18:58.216Z,0.00
2022-08-02T01:19:58.176Z,0.00
2022-08-02T01:20:58.163Z,0.00
2022-08-02T01:21:58.147Z,0.00
2022-08-02T01:23:01.729Z,0.00
2022-08-02T01:23:58.158Z,0.00
2022-08-02T01:24:58.154Z,0.00
2022-08-02T01:25:58.126Z,0.00
2022-08-02T01:26:58.087Z,0.00
2022-08-02T01:27:58.081Z,0.00
2022-08-02T01:28:58.057Z,0.00
2022-08-02T01:29:58.102Z,0.00
2022-08-02T01:30:58.043Z,0.00
2022-08-02T01:31:58.043Z,0.00
2022-08-02T01:32:58.048Z,0.00
2022-08-02T01:33:58.011Z,0.00
2022-08-02T01:34:58.026Z,0.00
2022-08-02T01:35:57.989Z,0.00
2022-08-02T01:36:57.981Z,0.00
2022-08-02T01:37:57.961Z,0.00
2022-08-02T01:38:57.946Z,0.00
2022-08-02T01:39:57.973Z,0.00
2022-08-02T01:40:57.945Z,0.00
2022-08-02T01:42:08.128Z,0.00
2022-08-02T01:42:58.914Z,0.00
2022-08-02T01:43:57.906Z,0.00
2022-08-02T01:44:57.940Z,0.00
2022-08-02T01:45:57.879Z,0.00
2022-08-02T01:46:57.857Z,0.00
2022-08-02T01:47:57.854Z,0.00
2022-08-02T01:48:57.871Z,0.00
2022-08-02T01:49:57.926Z,0.00
2022-08-02T01:50:57.837Z,0.00
2022-08-02T01:51:57.826Z,0.00
2022-08-02T01:52:57.792Z,0.00
2022-08-02T01:53:57.791Z,0.00
2022-08-02T01:54:57.806Z,0.00
2022-08-02T01:55:59.064Z,0.00
2022-08-02T01:56:57.749Z,0.00
2022-08-02T01:57:57.752Z,0.00
2022-08-02T01:58:57.724Z,0.00
2022-08-02T01:59:57.750Z,0.00
2022-08-02T02:00:57.789Z,0.00
2022-08-02T02:01:57.700Z,0.00
2022-08-02T02:02:57.683Z,0.00
2022-08-02T02:03:57.672Z,0.00
2022-08-02T02:04:57.687Z,0.00
2022-08-02T02:05:57.691Z,0.00
2022-08-02T02:06:57.630Z,0.00
2022-08-02T02:07:57.626Z,0.00
2022-08-02T02:08:57.605Z,0.00
2022-08-02T02:09:57.774Z,0.00
2022-08-02T02:10:57.613Z,0.00
2022-08-02T02:12:05.275Z,0.00
2022-08-02T02:12:58.564Z,0.00
2022-08-02T02:13:57.559Z,0.00
2022-08-02T02:14:57.577Z,0.00
2022-08-02T02:15:57.537Z,0.00
2022-08-02T02:16:57.541Z,0.00
2022-08-02T02:18:12.860Z,0.00
2022-08-02T02:18:58.502Z,0.00
2022-08-02T02:19:57.533Z,0.00
2022-08-02T02:20:57.609Z,0.00
2022-08-02T02:21:57.481Z,0.00
2022-08-02T02:22:57.516Z,0.00
2022-08-02T02:23:57.447Z,0.00
2022-08-02T02:24:57.565Z,0.00
2022-08-02T02:25:57.525Z,0.00
2022-08-02T02:26:57.446Z,0.00
2022-08-02T02:27:57.420Z,0.00
2022-08-02T02:28:57.395Z,0.00
2022-08-02T02:29:57.419Z,0.00
2022-08-02T02:30:57.460Z,0.00
2022-08-02T02:31:57.453Z,0.00
2022-08-02T02:32:57.480Z,0.00
2022-08-02T02:33:57.345Z,0.00
2022-08-02T02:34:57.372Z,0.00
2022-08-02T02:35:58.227Z,0.00
2022-08-02T02:36:57.299Z,0.00
2022-08-02T02:37:57.289Z,0.00
2022-08-02T02:38:57.275Z,0.00
2022-08-02T02:39:57.315Z,0.00
2022-08-02T02:40:57.264Z,0.00
2022-08-02T02:41:57.256Z,0.00
2022-08-02T02:42:57.253Z,0.00
2022-08-02T02:43:57.324Z,0.00
2022-08-02T02:44:57.247Z,0.00
2022-08-02T02:45:57.212Z,0.00
2022-08-02T02:46:57.306Z,0.00
2022-08-02T02:47:57.174Z,0.00
2022-08-02T02:48:57.275Z,0.00
2022-08-02T02:49:57.188Z,0.00
2022-08-02T02:50:57.190Z,0.00
2022-08-02T02:51:57.173Z,0.00
2022-08-02T02:52:57.175Z,0.00
2022-08-02T02:54:32.617Z,0.00
2022-08-02T02:54:58.154Z,0.00
2022-08-02T02:56:02.480Z,0.00
2022-08-02T02:56:58.251Z,0.00
2022-08-02T02:57:57.158Z,0.00
2022-08-02T02:58:57.052Z,0.00
2022-08-02T02:59:57.044Z,0.00
2022-08-02T03:00:57.093Z,0.00
2022-08-02T03:01:58.279Z,0.00
2022-08-02T03:02:57.022Z,0.00
2022-08-02T03:03:57.016Z,0.00
2022-08-02T03:04:58.257Z,0.00
2022-08-02T03:05:57.019Z,0.00
2022-08-02T03:06:56.945Z,0.00
2022-08-02T03:07:56.953Z,0.00
2022-08-02T03:08:56.937Z,0.00
2022-08-02T03:09:56.949Z,0.00
2022-08-02T03:10:56.974Z,0.00
2022-08-02T03:11:56.906Z,0.00
2022-08-02T03:12:56.890Z,0.00
2022-08-02T03:13:56.878Z,0.00
2022-08-02T03:14:56.858Z,0.00
2022-08-02T03:15:56.888Z,0.00
2022-08-02T03:16:56.839Z,5.62
2022-08-02T03:17:56.833Z,5.62
2022-08-02T03:18:56.825Z,5.62
2022-08-02T03:19:56.819Z,5.62
2022-08-02T03:20:56.824Z,5.62
2022-08-02T03:21:57.585Z,11.25
2022-08-02T03:22:56.771Z,11.25
2022-08-02T03:23:56.768Z,16.88
2022-08-02T03:24:56.788Z,16.88
2022-08-02T03:25:56.761Z,16.88
2022-08-02T03:26:56.770Z,16.88
2022-08-02T03:27:56.739Z,22.50
2022-08-02T03:28:56.702Z,22.50
2022-08-02T03:29:56.731Z,22.50
2022-08-02T03:30:56.693Z,28.12
2022-08-02T03:31:56.683Z,28.12
2022-08-02T03:32:56.703Z,33.75
2022-08-02T03:33:56.663Z,33.75
2022-08-02T03:34:56.670Z,33.75
2022-08-02T03:35:56.694Z,39.38
2022-08-02T03:36:56.604Z,39.38
2022-08-02T03:37:56.627Z,45.00
2022-08-02T03:38:56.575Z,45.00
2022-08-02T03:39:56.626Z,50.62
2022-08-02T03:40:56.668Z,56.25
2022-08-02T03:41:56.569Z,56.25
2022-08-02T03:42:56.558Z,61.88
2022-08-02T03:43:56.535Z,67.50
2022-08-02T03:44:56.652Z,67.50
2022-08-02T03:45:56.600Z,73.12
2022-08-02T03:46:56.499Z,78.75
2022-08-02T03:47:58.838Z,84.38
2022-08-02T03:48:56.517Z,84.38
2022-08-02T03:49:56.607Z,90.00
2022-08-02T03:50:56.564Z,95.62
2022-08-02T03:51:56.440Z,101.25
2022-08-02T03:52:56.426Z,101.25
2022-08-02T03:53:56.528Z,106.88
2022-08-02T03:54:56.535Z,112.50
2022-08-02T03:55:56.417Z,118.12
2022-08-02T03:56:56.387Z,123.75
2022-08-02T03:57:56.374Z,129.38
2022-08-02T03:58:56.456Z,135.00
2022-08-02T03:59:56.385Z,140.62
2022-08-02T04:00:56.448Z,140.62
2022-08-02T04:01:56.344Z,146.25
2022-08-02T04:02:56.409Z,146.25
2022-08-02T04:03:56.392Z,151.88
2022-08-02T04:04:56.317Z,157.50
2022-08-02T04:06:04.075Z,163.12
2022-08-02T04:06:57.259Z,174.38
2022-08-02T04:08:34.046Z,180.00
2022-08-02T04:08:57.352Z,191.25
2022-08-02T04:09:56.305Z,202.50
2022-08-02T04:10:56.322Z,213.75
2022-08-02T04:11:56.305Z,225.00
2022-08-02T04:12:56.310Z,225.00
2022-08-02T04:13:57.001Z,219.38
2022-08-02T04:14:56.245Z,208.12
2022-08-02T04:15:56.205Z,196.88
2022-08-02T04:16:56.162Z,185.62
2022-08-02T04:17:56.267Z,185.62
2022-08-02T04:18:56.134Z,185.62
2022-08-02T04:19:56.222Z,191.25
2022-08-02T04:20:56.120Z,191.25
2022-08-02T04:21:56.211Z,196.88
2022-08-02T04:22:56.095Z,196.88
2022-08-02T04:23:56.088Z,202.50
2022-08-02T04:24:56.148Z,208.12
2022-08-02T04:25:56.070Z,213.75
2022-08-02T04:26:57.861Z,219.38
2022-08-02T04:28:15.344Z,230.62
2022-08-02T04:28:57.121Z,247.50
2022-08-02T04:29:56.100Z,264.38
2022-08-02T04:30:56.000Z,286.88
2022-08-02T04:31:55.991Z,298.12
2022-08-02T04:32:55.975Z,303.75
2022-08-02T04:33:55.993Z,292.50
2022-08-02T04:35:19.073Z,292.50
2022-08-02T04:35:59.715Z,303.75
2022-08-02T04:36:55.935Z,298.12
2022-08-02T04:38:09.365Z,298.12
2022-08-02T04:38:56.936Z,298.12
2022-08-02T04:39:55.960Z,292.50
2022-08-02T04:40:55.932Z,286.88
2022-08-02T04:41:57.910Z,315.00
2022-08-02T04:42:55.875Z,343.12
2022-08-02T04:43:55.879Z,360.00
2022-08-02T04:44:55.910Z,388.12
2022-08-02T04:45:55.852Z,405.00
2022-08-02T04:46:55.832Z,416.25
2022-08-02T04:48:04.468Z,416.25
2022-08-02T04:48:56.856Z,416.25
2022-08-02T04:49:55.867Z,410.62
2022-08-02T04:50:55.801Z,416.25
2022-08-02T04:51:55.800Z,416.25
2022-08-02T04:52:55.789Z,433.12
2022-08-02T04:53:55.759Z,450.00
2022-08-02T04:54:56.745Z,466.88
2022-08-02T04:55:55.858Z,483.75
2022-08-02T04:56:55.716Z,495.00
2022-08-02T04:57:55.768Z,517.50
2022-08-02T04:58:55.679Z,556.88
2022-08-02T04:59:55.748Z,585.00
2022-08-02T05:00:55.747Z,630.00
2022-08-02T05:01:55.704Z,669.38
2022-08-02T05:02:55.670Z,686.25
2022-08-02T05:03:55.654Z,686.25
2022-08-02T05:04:55.697Z,658.12
2022-08-02T05:05:55.677Z,562.50
2022-08-02T05:06:55.627Z,534.38
2022-08-02T05:07:55.603Z,523.12
2022-08-02T05:08:55.630Z,506.25
2022-08-02T05:09:55.623Z,466.88
2022-08-02T05:10:55.665Z,472.50
2022-08-02T05:11:55.585Z,478.12
2022-08-02T05:12:55.534Z,478.12
2022-08-02T05:13:57.601Z,478.12
2022-08-02T05:14:55.557Z,483.75
2022-08-02T05:15:55.701Z,483.75
2022-08-02T05:16:55.523Z,506.25
2022-08-02T05:17:55.478Z,506.25
2022-08-02T05:18:55.518Z,495.00
2022-08-02T05:19:55.472Z,478.12
2022-08-02T05:20:58.266Z,478.12
2022-08-02T05:21:55.443Z,489.38
2022-08-02T05:22:55.455Z,517.50
2022-08-02T05:23:55.410Z,556.88
2022-08-02T05:24:55.443Z,601.88
2022-08-02T05:25:55.432Z,635.62
2022-08-02T05:26:55.386Z,658.12
2022-08-02T05:27:55.390Z,658.12
2022-08-02T05:28:55.408Z,646.88
2022-08-02T05:29:56.923Z,641.25
2022-08-02T05:30:55.449Z,624.38
2022-08-02T05:31:55.321Z,635.62
2022-08-02T05:32:55.311Z,675.00
2022-08-02T05:33:55.349Z,703.12
2022-08-02T05:34:55.323Z,680.62
2022-08-02T05:35:55.350Z,686.25
2022-08-02T05:36:55.290Z,669.38
2022-08-02T05:37:55.337Z,635.62
2022-08-02T05:39:04.624Z,601.88
2022-08-02T05:39:56.485Z,556.88
2022-08-02T05:40:55.371Z,528.75
2022-08-02T05:41:55.231Z,517.50
2022-08-02T05:42:55.255Z,523.12
2022-08-02T05:43:55.245Z,500.62
2022-08-02T05:44:55.193Z,500.62
2022-08-02T05:45:55.263Z,523.12
2022-08-02T05:46:55.168Z,540.00
2022-08-02T05:47:55.142Z,551.25
2022-08-02T05:48:55.199Z,607.50
2022-08-02T05:49:55.182Z,658.12
2022-08-02T05:50:55.181Z,675.00
2022-08-02T05:51:55.136Z,669.38
2022-08-02T05:52:55.101Z,675.00
2022-08-02T05:53:55.091Z,691.88
2022-08-02T05:54:55.119Z,697.50
2022-08-02T05:55:55.107Z,697.50
2022-08-02T05:56:55.116Z,669.38
2022-08-02T05:57:55.051Z,652.50
2022-08-02T05:58:55.027Z,618.75
2022-08-02T05:59:55.049Z,596.25
2022-08-02T06:00:55.045Z,573.75
2022-08-02T06:01:55.086Z,562.50
2022-08-02T06:02:54.995Z,573.75
2022-08-02T06:03:56.208Z,607.50
2022-08-02T06:04:54.992Z,652.50
2022-08-02T06:05:54.929Z,686.25
2022-08-02T06:06:54.947Z,731.25
2022-08-02T06:07:54.948Z,748.12
2022-08-02T06:08:54.941Z,748.12
2022-08-02T06:09:54.914Z,725.62
2022-08-02T06:10:54.913Z,714.38
2022-08-02T06:12:02.440Z,697.50
2022-08-02T06:12:55.885Z,669.38
2022-08-02T06:13:54.863Z,618.75
2022-08-02T06:14:54.861Z,596.25
2022-08-02T06:15:54.855Z,635.62
2022-08-02T06:16:54.979Z,663.75
2022-08-02T06:17:54.856Z,714.38
2022-08-02T06:18:54.816Z,753.75
2022-08-02T06:19:54.828Z,765.00
2022-08-02T06:20:54.778Z,804.38
2022-08-02T06:22:34.022Z,765.00
2022-08-02T06:22:55.779Z,736.88
2022-08-02T06:23:58.072Z,725.62
2022-08-02T06:24:54.841Z,675.00
2022-08-02T06:25:54.890Z,686.25
2022-08-02T06:26:54.747Z,714.38
2022-08-02T06:27:54.681Z,742.50
2022-08-02T06:28:54.712Z,781.88
2022-08-02T06:29:54.691Z,821.25
2022-08-02T06:30:54.667Z,871.88
2022-08-02T06:31:54.869Z,922.50
2022-08-02T06:32:54.641Z,967.50
2022-08-02T06:33:54.739Z,950.62
2022-08-02T06:34:54.700Z,933.75
2022-08-02T06:35:54.769Z,888.75
2022-08-02T06:36:54.664Z,866.25
2022-08-02T06:37:58.751Z,866.25
2022-08-02T06:38:54.750Z,832.50
2022-08-02T06:39:54.604Z,742.50
2022-08-02T06:40:54.696Z,742.50
2022-08-02T06:41:54.783Z,680.62
2022-08-02T06:42:54.558Z,641.25
2022-08-02T06:43:54.540Z,646.88
2022-08-02T06:44:57.683Z,641.25
2022-08-02T06:45:54.518Z,624.38
2022-08-02T06:47:11.892Z,590.62
2022-08-02T06:47:55.518Z,596.25
2022-08-02T06:48:54.524Z,641.25
2022-08-02T06:49:55.046Z,624.38
2022-08-02T06:50:54.479Z,607.50
2022-08-02T06:51:54.466Z,551.25
2022-08-02T06:52:54.626Z,601.88
2022-08-02T06:53:54.416Z,596.25
2022-08-02T06:54:54.528Z,596.25
2022-08-02T06:55:55.409Z,596.25
2022-08-02T06:56:54.392Z,596.25
2022-08-02T06:57:54.435Z,607.50
2022-08-02T06:58:54.376Z,613.12
2022-08-02T06:59:54.343Z,618.75
2022-08-02T07:00:54.331Z,630.00
2022-08-02T07:01:54.310Z,641.25
2022-08-02T07:02:54.519Z,658.12
2022-08-02T07:03:54.307Z,680.62
2022-08-02T07:04:54.304Z,714.38
2022-08-02T07:05:54.293Z,742.50
2022-08-02T07:06:54.263Z,765.00
2022-08-02T07:07:54.275Z,781.88
2022-08-02T07:09:18.235Z,804.38
2022-08-02T07:10:00.391Z,804.38
2022-08-02T07:10:55.238Z,798.75
2022-08-02T07:11:54.206Z,804.38
2022-08-02T07:12:57.241Z,793.12
2022-08-02T07:13:55.267Z,798.75
2022-08-02T07:14:54.192Z,798.75
2022-08-02T07:15:54.170Z,804.38
2022-08-02T07:16:54.162Z,787.50
2022-08-02T07:17:54.212Z,798.75
2022-08-02T07:18:54.144Z,697.50
2022-08-02T07:19:54.186Z,691.88
2022-08-02T07:20:54.167Z,686.25
2022-08-02T07:21:56.830Z,736.88
2022-08-02T07:22:55.145Z,810.00
2022-08-02T07:23:54.091Z,911.25
2022-08-02T07:24:54.066Z,995.62
2022-08-02T07:26:02.710Z,1085.62
2022-08-02T07:27:10.568Z,1170.00
2022-08-02T07:27:55.185Z,1254.38
2022-08-02T07:28:54.030Z,1282.50
2022-08-02T07:29:54.037Z,1288.12
2022-08-02T07:30:53.997Z,1226.25
2022-08-02T07:31:54.004Z,1164.38
2022-08-02T07:32:54.003Z,1153.12
2022-08-02T07:33:53.984Z,1158.75
2022-08-02T07:34:55.180Z,1102.50
2022-08-02T07:35:53.998Z,1040.62
2022-08-02T07:36:53.956Z,1023.75
2022-08-02T07:38:00.947Z,1023.75
2022-08-02T07:38:54.928Z,1096.88
2022-08-02T07:39:53.907Z,1102.50
2022-08-02T07:40:53.894Z,1136.25
2022-08-02T07:41:53.913Z,1203.75
2022-08-02T07:42:57.726Z,1215.00
2022-08-02T07:43:54.881Z,1164.38
2022-08-02T07:44:53.873Z,1198.12
2022-08-02T07:45:55.980Z,1108.12
2022-08-02T07:46:54.848Z,1074.38
2022-08-02T07:47:53.864Z,1074.38
2022-08-02T07:48:53.848Z,1040.62
2022-08-02T07:49:53.853Z,956.25
2022-08-02T07:50:53.791Z,860.62
2022-08-02T07:51:53.797Z,843.75
2022-08-02T07:52:58.019Z,883.12
2022-08-02T07:54:02.126Z,967.50
2022-08-02T07:54:54.789Z,1108.12
2022-08-02T07:55:53.755Z,1456.88
2022-08-02T07:56:58.519Z,1614.38
2022-08-02T07:57:54.773Z,1822.50
2022-08-02T07:58:53.730Z,1530.00
2022-08-02T07:59:53.765Z,1434.38
2022-08-02T08:00:53.709Z,1366.88
2022-08-02T08:01:53.701Z,1383.75
2022-08-02T08:02:57.380Z,1321.88
2022-08-02T08:03:54.654Z,1316.25
2022-08-02T08:04:53.620Z,1153.12
2022-08-02T08:05:53.646Z,1147.50
2022-08-02T08:06:53.631Z,1271.25
2022-08-02T08:07:53.664Z,1771.88
2022-08-02T08:08:53.578Z,1192.50
2022-08-02T08:09:56.372Z,1215.00
2022-08-02T08:10:53.615Z,1192.50
2022-08-02T08:11:53.563Z,1518.75
2022-08-02T08:12:53.629Z,2334.38
2022-08-02T08:13:53.559Z,2424.38
2022-08-02T08:14:53.675Z,2098.12
2022-08-02T08:15:53.524Z,2261.25
2022-08-02T08:16:53.515Z,2278.12
2022-08-02T08:17:53.552Z,1080.00
2022-08-02T08:18:53.488Z,1445.62
2022-08-02T08:19:53.459Z,2216.25
2022-08-02T08:20:53.455Z,877.50
2022-08-02T08:21:53.469Z,838.12
2022-08-02T08:22:53.480Z,765.00
2022-08-02T08:23:53.469Z,810.00
2022-08-02T08:24:53.451Z,843.75
2022-08-02T08:25:53.414Z,1428.75
2022-08-02T08:26:53.375Z,2424.38
2022-08-02T08:27:53.414Z,2362.50
2022-08-02T08:28:53.389Z,2334.38
2022-08-02T08:29:53.378Z,2385.00
2022-08-02T08:30:53.354Z,1113.75
2022-08-02T08:31:53.342Z,866.25
2022-08-02T08:32:53.323Z,1260.00
2022-08-02T08:33:53.414Z,2497.50
2022-08-02T08:34:53.356Z,1102.50
2022-08-02T08:35:53.282Z,2548.12
2022-08-02T08:36:53.320Z,2536.88
2022-08-02T08:37:53.309Z,2536.88
2022-08-02T08:38:53.349Z,1603.12
2022-08-02T08:39:56.983Z,2430.00
2022-08-02T08:40:54.302Z,2503.12
2022-08-02T08:41:53.260Z,2053.12
2022-08-02T08:42:53.224Z,1006.88
2022-08-02T08:43:53.566Z,995.62
2022-08-02T08:44:53.339Z,2244.38
2022-08-02T08:45:55.763Z,2323.12
2022-08-02T08:46:53.207Z,2458.12
2022-08-02T08:47:53.280Z,2503.12
2022-08-02T08:48:53.257Z,2649.38
2022-08-02T08:49:53.535Z,2778.75
2022-08-02T08:50:53.154Z,2806.88
2022-08-02T08:51:53.244Z,1946.25
2022-08-02T08:52:53.223Z,1485.00
2022-08-02T08:53:53.274Z,2728.12
2022-08-02T08:54:53.233Z,2621.25
2022-08-02T08:55:53.110Z,1507.50
2022-08-02T08:56:53.084Z,2143.12
2022-08-02T08:57:53.128Z,1996.88
2022-08-02T08:58:53.164Z,2700.00
2022-08-02T08:59:53.130Z,2863.12
2022-08-02T09:00:53.234Z,1130.62
2022-08-02T09:01:53.145Z,1215.00
2022-08-02T09:02:53.140Z,1305.00
2022-08-02T09:03:53.067Z,1130.62
2022-08-02T09:04:54.991Z,1192.50
2022-08-02T09:05:52.996Z,2885.62
2022-08-02T09:06:53.119Z,1406.25
2022-08-02T09:07:53.042Z,1378.12
2022-08-02T09:08:52.986Z,2086.88
2022-08-02T09:09:52.981Z,3161.25
2022-08-02T09:10:52.950Z,3150.00
2022-08-02T09:11:53.007Z,3161.25
2022-08-02T09:12:52.912Z,3150.00
2022-08-02T09:13:53.035Z,3121.88
2022-08-02T09:14:52.932Z,973.12
2022-08-02T09:15:52.988Z,849.38
2022-08-02T09:16:52.963Z,793.12
2022-08-02T09:17:52.977Z,759.38
2022-08-02T09:18:52.922Z,2812.50
2022-08-02T09:19:52.856Z,2593.12
2022-08-02T09:20:52.846Z,2812.50
2022-08-02T09:21:52.919Z,1440.00
2022-08-02T09:22:52.799Z,725.62
2022-08-02T09:23:52.884Z,759.38
2022-08-02T09:24:52.811Z,916.88
2022-08-02T09:25:59.031Z,2632.50
2022-08-02T09:26:53.783Z,2604.38
2022-08-02T09:27:52.798Z,2581.88
2022-08-02T09:28:52.777Z,3121.88
2022-08-02T09:30:12.049Z,3138.75
2022-08-02T09:30:53.706Z,3133.12
2022-08-02T09:31:52.773Z,3133.12
2022-08-02T09:32:52.769Z,3189.38
2022-08-02T09:33:52.714Z,3240.00
2022-08-02T09:34:52.801Z,3290.62
2022-08-02T09:36:05.458Z,3313.12
2022-08-02T09:36:54.360Z,3341.25
2022-08-02T09:37:52.747Z,3256.88
2022-08-02T09:38:52.840Z,3161.25
2022-08-02T09:39:58.399Z,1614.38
2022-08-02T09:40:53.597Z,911.25
2022-08-02T09:41:52.623Z,866.25
2022-08-02T09:42:52.613Z,810.00
2022-08-02T09:44:05.433Z,804.38
2022-08-02T09:44:53.581Z,798.75
2022-08-02T09:45:52.580Z,832.50
2022-08-02T09:46:52.557Z,900.00
2022-08-02T09:47:52.650Z,1670.62
2022-08-02T09:48:52.896Z,3223.12
2022-08-02T09:49:52.838Z,1203.75
2022-08-02T09:50:52.485Z,3099.38
2022-08-02T09:51:52.523Z,1035.00
2022-08-02T09:52:52.488Z,922.50
2022-08-02T09:54:01.990Z,3048.75
2022-08-02T09:54:53.576Z,3116.25
2022-08-02T09:55:52.507Z,1125.00
2022-08-02T09:56:52.441Z,3150.00
2022-08-02T09:57:52.472Z,3189.38
2022-08-02T09:58:53.336Z,3211.88
2022-08-02T09:59:52.518Z,3211.88
2022-08-02T10:00:52.942Z,3200.62
2022-08-02T10:02:01.605Z,3206.25
2022-08-02T10:02:53.369Z,2536.88
2022-08-02T10:03:52.738Z,978.75
2022-08-02T10:04:54.186Z,2649.38
2022-08-02T10:05:56.222Z,1096.88
2022-08-02T10:06:53.360Z,3251.25
2022-08-02T10:07:52.324Z,3330.00
2022-08-02T10:08:52.334Z,3363.75
2022-08-02T10:09:52.345Z,3369.38
2022-08-02T10:10:52.308Z,3397.50
2022-08-02T10:11:52.316Z,3453.75
2022-08-02T10:12:52.280Z,3498.75
2022-08-02T10:13:52.287Z,3493.12
2022-08-02T10:14:52.293Z,3481.88
2022-08-02T10:15:52.258Z,3543.75
2022-08-02T10:16:52.249Z,3622.50
2022-08-02T10:17:52.222Z,3076.88
2022-08-02T10:18:52.277Z,3498.75
2022-08-02T10:20:00.121Z,3481.88
2022-08-02T10:20:53.187Z,3521.25
2022-08-02T10:21:52.213Z,3583.12
2022-08-02T10:22:52.177Z,3673.12
2022-08-02T10:23:52.574Z,3667.50
2022-08-02T10:24:52.261Z,3549.38
2022-08-02T10:25:52.518Z,3442.50
2022-08-02T10:26:52.139Z,3538.12
2022-08-02T10:28:04.895Z,3526.88
2022-08-02T10:28:53.179Z,1417.50
2022-08-02T10:29:54.236Z,1395.00
2022-08-02T10:30:52.082Z,3639.38
2022-08-02T10:31:52.119Z,3605.62
2022-08-02T10:32:52.085Z,3532.50
2022-08-02T10:33:52.094Z,2300.62
2022-08-02T10:34:52.150Z,3583.12
2022-08-02T10:36:04.439Z,3583.12
2022-08-02T10:36:53.485Z,3600.00
2022-08-02T10:37:52.506Z,3453.75
2022-08-02T10:38:52.040Z,3538.12
2022-08-02T10:39:52.068Z,3470.62
2022-08-02T10:40:51.983Z,3172.50
2022-08-02T10:41:51.977Z,1327.50
2022-08-02T10:42:52.031Z,3487.50
2022-08-02T10:43:51.983Z,3375.00
2022-08-02T10:44:51.969Z,1181.25
2022-08-02T10:45:51.978Z,3335.62
2022-08-02T10:46:52.316Z,3403.12
2022-08-02T10:47:51.940Z,3493.12
2022-08-02T10:48:52.022Z,2373.75
2022-08-02T10:49:52.010Z,3015.00
2022-08-02T10:50:52.352Z,3375.00
2022-08-02T10:51:51.929Z,1541.25
2022-08-02T10:52:51.906Z,1816.88
2022-08-02T10:53:51.909Z,1271.25
2022-08-02T10:54:56.160Z,1715.62
2022-08-02T10:55:51.908Z,1479.38
2022-08-02T10:56:51.824Z,1788.75
2022-08-02T10:57:51.869Z,3341.25
2022-08-02T10:58:51.895Z,3324.38
2022-08-02T10:59:52.280Z,3425.62
2022-08-02T11:00:51.855Z,3459.38
2022-08-02T11:01:51.888Z,3330.00
2022-08-02T11:02:52.941Z,3341.25
2022-08-02T11:03:51.802Z,3234.38
2022-08-02T11:04:51.904Z,1260.00
2022-08-02T11:05:51.805Z,2936.25
2022-08-02T11:06:51.869Z,2981.25
2022-08-02T11:07:51.762Z,1091.25
2022-08-02T11:08:51.763Z,1569.38
2022-08-02T11:09:51.758Z,3234.38
2022-08-02T11:10:51.696Z,3240.00
2022-08-02T11:11:53.749Z,3318.75
2022-08-02T11:12:51.714Z,3279.38
2022-08-02T11:13:51.814Z,3335.62
2022-08-02T11:14:53.058Z,1833.75
2022-08-02T11:15:51.767Z,1164.38
2022-08-02T11:16:51.673Z,1170.00
2022-08-02T11:17:51.629Z,1260.00
2022-08-02T11:18:51.632Z,3256.88
2022-08-02T11:19:51.741Z,3324.38
2022-08-02T11:20:51.751Z,3425.62
2022-08-02T11:21:51.627Z,3476.25
2022-08-02T11:22:51.593Z,3470.62
2022-08-02T11:23:51.605Z,3504.38
2022-08-02T11:24:51.737Z,3515.62
2022-08-02T11:26:03.619Z,3566.25
2022-08-02T11:26:52.575Z,3566.25
2022-08-02T11:27:51.980Z,3616.88
2022-08-02T11:28:51.635Z,3684.38
2022-08-02T11:29:51.629Z,3633.75
2022-08-02T11:30:51.513Z,3611.25
2022-08-02T11:31:51.705Z,3605.62
2022-08-02T11:32:51.706Z,3639.38
2022-08-02T11:33:53.005Z,3588.75
2022-08-02T11:34:51.694Z,3538.12
2022-08-02T11:35:51.491Z,3470.62
2022-08-02T11:36:51.548Z,3386.25
2022-08-02T11:37:51.615Z,3313.12
2022-08-02T11:38:51.518Z,3290.62
2022-08-02T11:39:51.481Z,3273.75
2022-08-02T11:40:57.274Z,3346.88
2022-08-02T11:41:52.427Z,3358.12
2022-08-02T11:42:51.447Z,3403.12
2022-08-02T11:43:53.244Z,3358.12
2022-08-02T11:44:52.048Z,3380.62
2022-08-02T11:45:52.586Z,3453.75
2022-08-02T11:46:51.963Z,3414.38
2022-08-02T11:47:51.774Z,3436.88
2022-08-02T11:48:51.808Z,3476.25
2022-08-02T11:49:51.580Z,3476.25
2022-08-02T11:50:52.658Z,3532.50
2022-08-02T11:51:54.171Z,3481.88
2022-08-02T11:52:51.694Z,3436.88
2022-08-02T11:53:51.563Z,3436.88
2022-08-02T11:54:51.455Z,3442.50
2022-08-02T11:55:51.740Z,3487.50
2022-08-02T11:56:51.443Z,3577.50
2022-08-02T11:58:04.900Z,3600.00
2022-08-02T11:58:52.955Z,3661.88
2022-08-02T11:59:51.822Z,3639.38
2022-08-02T12:00:51.790Z,3622.50
2022-08-02T12:01:51.566Z,3780.00
2022-08-02T12:02:51.512Z,1023.75
2022-08-02T12:03:51.373Z,1704.38
2022-08-02T12:04:51.246Z,1215.00
2022-08-02T12:06:05.256Z,4016.25
2022-08-02T12:06:52.250Z,4027.50
2022-08-02T12:07:51.207Z,1395.00
2022-08-02T12:08:51.929Z,1203.75
2022-08-02T12:09:51.652Z,3735.00
2022-08-02T12:10:51.212Z,3825.00
2022-08-02T12:11:51.157Z,3943.12
2022-08-02T12:12:51.687Z,4055.62
2022-08-02T12:13:56.504Z,3993.75
2022-08-02T12:14:52.307Z,3948.75
2022-08-02T12:15:51.146Z,3870.00
2022-08-02T12:16:51.092Z,3774.38
2022-08-02T12:17:51.459Z,3847.50
2022-08-02T12:18:51.427Z,3870.00
2022-08-02T12:19:51.064Z,3836.25
2022-08-02T12:20:51.128Z,3875.62
2022-08-02T12:21:51.086Z,3886.88
2022-08-02T12:22:51.096Z,3920.62
2022-08-02T12:24:00.485Z,3976.88
2022-08-02T12:24:52.086Z,3971.25
2022-08-02T12:25:51.116Z,3954.38
2022-08-02T12:26:51.019Z,4021.88
2022-08-02T12:27:53.488Z,4050.00
2022-08-02T12:28:51.027Z,4089.38
2022-08-02T12:29:58.290Z,4128.75
2022-08-02T12:30:52.042Z,4162.50
2022-08-02T12:31:57.006Z,4168.12
2022-08-02T12:32:51.977Z,4151.25
2022-08-02T12:33:50.947Z,4185.00